sensor_id;sensor_type;location;lat;lon;timestamp;temperature;humidity
21487;DHT22;10905;50.822;4.336;2024-01-11T00:00:59;-1.40;99.90
21487;DHT22;10905;50.822;4.336;2024-01-11T00:03:24;-1.40;99.90
21487;DHT22;10905;50.822;4.336;2024-01-11T00:05:50;-1.50;99.90
21487;DHT22;10905;50.822;4.336;2024-01-11T00:08:16;-1.40;99.90
21487;DHT22;10905;50.822;4.336;2024-01-11T00:10:42;-1.50;99.90
21487;DHT22;10905;50.822;4.336;2024-01-11T00:13:07;-1.40;99.90
21487;DHT22;10905;50.822;4.336;2024-01-11T00:15:33;-1.40;99.90
21487;DHT22;10905;50.822;4.336;2024-01-11T00:17:59;-1.50;99.90
21487;DHT22;10905;50.822;4.336;2024-01-11T00:20:25;-1.50;99.90
21487;DHT22;10905;50.822;4.336;2024-01-11T00:22:50;-1.50;99.90
21487;DHT22;10905;50.822;4.336;2024-01-11T00:25:16;-1.50;99.90
21487;DHT22;10905;50.822;4.336;2024-01-11T00:27:41;-1.60;99.90
21487;DHT22;10905;50.822;4.336;2024-01-11T00:30:07;-1.60;99.90
21487;DHT22;10905;50.822;4.336;2024-01-11T00:32:33;-1.60;99.90
21487;DHT22;10905;50.822;4.336;2024-01-11T00:34:59;-1.60;99.90
21487;DHT22;10905;50.822;4.336;2024-01-11T00:37:24;-1.60;99.90
21487;DHT22;10905;50.822;4.336;2024-01-11T00:39:50;-1.60;99.90
21487;DHT22;10905;50.822;4.336;2024-01-11T00:42:16;-1.70;99.90
21487;DHT22;10905;50.822;4.336;2024-01-11T00:44:41;-1.60;99.90
21487;DHT22;10905;50.822;4.336;2024-01-11T00:47:07;-1.60;99.90
21487;DHT22;10905;50.822;4.336;2024-01-11T00:49:33;-1.50;99.90
21487;DHT22;10905;50.822;4.336;2024-01-11T00:51:58;-1.50;99.90
21487;DHT22;10905;50.822;4.336;2024-01-11T00:54:24;-1.50;99.90
21487;DHT22;10905;50.822;4.336;2024-01-11T00:56:50;-1.40;99.90
21487;DHT22;10905;50.822;4.336;2024-01-11T00:59:16;-1.40;99.90
21487;DHT22;10905;50.822;4.336;2024-01-11T01:01:49;-1.50;99.90
21487;DHT22;10905;50.822;4.336;2024-01-11T01:04:15;-1.50;99.90
21487;DHT22;10905;50.822;4.336;2024-01-11T01:06:41;-1.60;99.90
21487;DHT22;10905;50.822;4.336;2024-01-11T01:09:08;-1.60;99.90
21487;DHT22;10905;50.822;4.336;2024-01-11T01:11:33;-1.60;99.90
21487;DHT22;10905;50.822;4.336;2024-01-11T01:13:59;-1.60;99.90
21487;DHT22;10905;50.822;4.336;2024-01-11T01:16:25;-1.70;99.90
21487;DHT22;10905;50.822;4.336;2024-01-11T01:18:51;-1.70;99.90
21487;DHT22;10905;50.822;4.336;2024-01-11T01:21:16;-1.60;99.90
21487;DHT22;10905;50.822;4.336;2024-01-11T01:23:42;-1.60;99.90
21487;DHT22;10905;50.822;4.336;2024-01-11T01:26:07;-1.70;99.90
21487;DHT22;10905;50.822;4.336;2024-01-11T01:28:33;-1.80;99.90
21487;DHT22;10905;50.822;4.336;2024-01-11T01:30:59;-1.80;99.90
21487;DHT22;10905;50.822;4.336;2024-01-11T01:33:24;-1.90;99.90
21487;DHT22;10905;50.822;4.336;2024-01-11T01:35:50;-1.80;99.90
21487;DHT22;10905;50.822;4.336;2024-01-11T01:38:16;-1.90;99.90
21487;DHT22;10905;50.822;4.336;2024-01-11T01:40:43;-1.80;99.90
21487;DHT22;10905;50.822;4.336;2024-01-11T01:43:09;-1.70;99.90
21487;DHT22;10905;50.822;4.336;2024-01-11T01:45:35;-1.80;99.90
21487;DHT22;10905;50.822;4.336;2024-01-11T01:48:02;-1.80;99.90
21487;DHT22;10905;50.822;4.336;2024-01-11T01:50:28;-1.80;99.90
21487;DHT22;10905;50.822;4.336;2024-01-11T01:52:54;-1.80;99.90
21487;DHT22;10905;50.822;4.336;2024-01-11T01:55:22;-1.80;99.90
21487;DHT22;10905;50.822;4.336;2024-01-11T01:57:49;-1.80;99.90
21487;DHT22;10905;50.822;4.336;2024-01-11T02:00:15;-1.80;99.90
21487;DHT22;10905;50.822;4.336;2024-01-11T02:02:43;-1.80;99.90
21487;DHT22;10905;50.822;4.336;2024-01-11T02:05:13;-1.90;99.90
21487;DHT22;10905;50.822;4.336;2024-01-11T02:07:40;-1.90;99.90
21487;DHT22;10905;50.822;4.336;2024-01-11T02:10:07;-1.80;99.90
21487;DHT22;10905;50.822;4.336;2024-01-11T02:12:34;-1.70;99.90
21487;DHT22;10905;50.822;4.336;2024-01-11T02:15:01;-1.80;99.90
21487;DHT22;10905;50.822;4.336;2024-01-11T02:17:29;-1.80;99.90
21487;DHT22;10905;50.822;4.336;2024-01-11T02:19:55;-1.90;99.90
21487;DHT22;10905;50.822;4.336;2024-01-11T02:22:24;-2.10;99.90
21487;DHT22;10905;50.822;4.336;2024-01-11T02:24:52;-2.10;99.90
21487;DHT22;10905;50.822;4.336;2024-01-11T02:27:18;-2.10;99.90
21487;DHT22;10905;50.822;4.336;2024-01-11T02:29:44;-2.00;99.90
21487;DHT22;10905;50.822;4.336;2024-01-11T02:32:09;-2.00;99.90
21487;DHT22;10905;50.822;4.336;2024-01-11T02:34:35;-2.00;99.90
21487;DHT22;10905;50.822;4.336;2024-01-11T02:37:02;-2.00;99.90
21487;DHT22;10905;50.822;4.336;2024-01-11T02:39:27;-2.00;99.90
21487;DHT22;10905;50.822;4.336;2024-01-11T02:41:55;-2.00;99.90
21487;DHT22;10905;50.822;4.336;2024-01-11T02:44:21;-1.90;99.90
21487;DHT22;10905;50.822;4.336;2024-01-11T02:46:47;-1.90;99.90
21487;DHT22;10905;50.822;4.336;2024-01-11T02:49:12;-1.90;99.90
21487;DHT22;10905;50.822;4.336;2024-01-11T02:51:38;-1.90;99.90
21487;DHT22;10905;50.822;4.336;2024-01-11T02:54:04;-1.90;99.90
21487;DHT22;10905;50.822;4.336;2024-01-11T02:56:29;-1.90;99.90
21487;DHT22;10905;50.822;4.336;2024-01-11T02:58:55;-1.90;99.90
21487;DHT22;10905;50.822;4.336;2024-01-11T03:01:21;-1.90;99.90
21487;DHT22;10905;50.822;4.336;2024-01-11T03:03:46;-2.00;99.90
21487;DHT22;10905;50.822;4.336;2024-01-11T03:06:12;-2.10;99.90
21487;DHT22;10905;50.822;4.336;2024-01-11T03:08:38;-2.20;99.90
21487;DHT22;10905;50.822;4.336;2024-01-11T03:11:03;-2.10;99.90
21487;DHT22;10905;50.822;4.336;2024-01-11T03:13:29;-2.10;99.90
21487;DHT22;10905;50.822;4.336;2024-01-11T03:15:55;-2.10;99.90
21487;DHT22;10905;50.822;4.336;2024-01-11T03:18:20;-2.10;99.90
21487;DHT22;10905;50.822;4.336;2024-01-11T03:20:46;-2.10;99.90
21487;DHT22;10905;50.822;4.336;2024-01-11T03:23:12;-2.20;99.90
21487;DHT22;10905;50.822;4.336;2024-01-11T03:25:37;-2.20;99.90
21487;DHT22;10905;50.822;4.336;2024-01-11T03:28:03;-2.20;99.90
21487;DHT22;10905;50.822;4.336;2024-01-11T03:30:29;-2.20;99.90
21487;DHT22;10905;50.822;4.336;2024-01-11T03:32:55;-2.20;99.90
21487;DHT22;10905;50.822;4.336;2024-01-11T03:35:21;-2.20;99.90
21487;DHT22;10905;50.822;4.336;2024-01-11T03:37:47;-2.20;99.90
21487;DHT22;10905;50.822;4.336;2024-01-11T03:40:12;-2.20;99.90
21487;DHT22;10905;50.822;4.336;2024-01-11T03:42:39;-2.20;99.90
21487;DHT22;10905;50.822;4.336;2024-01-11T03:45:05;-2.30;99.90
21487;DHT22;10905;50.822;4.336;2024-01-11T03:47:31;-2.20;99.90
21487;DHT22;10905;50.822;4.336;2024-01-11T03:49:57;-2.20;99.90
21487;DHT22;10905;50.822;4.336;2024-01-11T03:52:22;-2.20;99.90
21487;DHT22;10905;50.822;4.336;2024-01-11T03:54:48;-2.20;99.90
21487;DHT22;10905;50.822;4.336;2024-01-11T03:57:14;-2.20;99.90
21487;DHT22;10905;50.822;4.336;2024-01-11T03:59:40;-2.10;99.90
21487;DHT22;10905;50.822;4.336;2024-01-11T04:02:06;-2.10;99.90
21487;DHT22;10905;50.822;4.336;2024-01-11T04:04:33;-2.10;99.90
21487;DHT22;10905;50.822;4.336;2024-01-11T04:06:58;-2.10;99.90
21487;DHT22;10905;50.822;4.336;2024-01-11T04:09:24;-2.10;99.90
21487;DHT22;10905;50.822;4.336;2024-01-11T04:11:50;-1.90;99.90
21487;DHT22;10905;50.822;4.336;2024-01-11T04:14:15;-2.00;99.90
21487;DHT22;10905;50.822;4.336;2024-01-11T04:16:41;-1.90;99.90
21487;DHT22;10905;50.822;4.336;2024-01-11T04:19:08;-1.90;99.90
21487;DHT22;10905;50.822;4.336;2024-01-11T04:21:33;-1.80;99.90
21487;DHT22;10905;50.822;4.336;2024-01-11T04:23:59;-1.90;99.90
21487;DHT22;10905;50.822;4.336;2024-01-11T04:26:25;-1.90;99.90
21487;DHT22;10905;50.822;4.336;2024-01-11T04:28:51;-2.10;99.90
21487;DHT22;10905;50.822;4.336;2024-01-11T04:31:17;-2.10;99.90
21487;DHT22;10905;50.822;4.336;2024-01-11T04:33:44;-2.10;99.90
21487;DHT22;10905;50.822;4.336;2024-01-11T04:36:10;-2.30;99.90
21487;DHT22;10905;50.822;4.336;2024-01-11T04:38:36;-2.20;99.90
21487;DHT22;10905;50.822;4.336;2024-01-11T04:41:12;-2.20;99.90
21487;DHT22;10905;50.822;4.336;2024-01-11T04:43:39;-2.30;99.90
21487;DHT22;10905;50.822;4.336;2024-01-11T04:46:25;-2.40;99.90
21487;DHT22;10905;50.822;4.336;2024-01-11T04:48:50;-2.40;99.90
21487;DHT22;10905;50.822;4.336;2024-01-11T04:51:17;-2.50;99.90
21487;DHT22;10905;50.822;4.336;2024-01-11T04:53:44;-2.50;99.90
21487;DHT22;10905;50.822;4.336;2024-01-11T04:56:13;-2.60;99.90
21487;DHT22;10905;50.822;4.336;2024-01-11T04:58:41;-2.60;99.90
21487;DHT22;10905;50.822;4.336;2024-01-11T05:01:07;-2.60;99.90
21487;DHT22;10905;50.822;4.336;2024-01-11T05:03:36;-2.60;99.90
21487;DHT22;10905;50.822;4.336;2024-01-11T05:06:02;-2.60;99.90
21487;DHT22;10905;50.822;4.336;2024-01-11T05:08:28;-2.50;99.90
21487;DHT22;10905;50.822;4.336;2024-01-11T05:10:53;-2.60;99.90
21487;DHT22;10905;50.822;4.336;2024-01-11T05:13:19;-2.70;99.90
21487;DHT22;10905;50.822;4.336;2024-01-11T05:15:45;-2.70;99.90
21487;DHT22;10905;50.822;4.336;2024-01-11T05:18:11;-2.80;99.90
21487;DHT22;10905;50.822;4.336;2024-01-11T05:20:37;-2.80;99.90
21487;DHT22;10905;50.822;4.336;2024-01-11T05:23:03;-2.90;99.90
21487;DHT22;10905;50.822;4.336;2024-01-11T05:25:30;-2.90;99.90
21487;DHT22;10905;50.822;4.336;2024-01-11T05:28:02;-2.90;99.90
21487;DHT22;10905;50.822;4.336;2024-01-11T05:30:29;-2.90;99.90
21487;DHT22;10905;50.822;4.336;2024-01-11T05:32:54;-2.80;99.90
21487;DHT22;10905;50.822;4.336;2024-01-11T05:35:21;-3.00;99.90
21487;DHT22;10905;50.822;4.336;2024-01-11T05:37:52;-3.00;99.90
21487;DHT22;10905;50.822;4.336;2024-01-11T05:40:17;-2.90;99.90
21487;DHT22;10905;50.822;4.336;2024-01-11T05:42:43;-2.90;99.90
21487;DHT22;10905;50.822;4.336;2024-01-11T05:45:09;-2.90;99.90
21487;DHT22;10905;50.822;4.336;2024-01-11T05:47:34;-2.90;99.90
21487;DHT22;10905;50.822;4.336;2024-01-11T05:50:00;-2.90;99.90
21487;DHT22;10905;50.822;4.336;2024-01-11T05:52:25;-2.90;99.90
21487;DHT22;10905;50.822;4.336;2024-01-11T05:54:51;-2.90;99.90
21487;DHT22;10905;50.822;4.336;2024-01-11T05:57:17;-2.90;99.90
21487;DHT22;10905;50.822;4.336;2024-01-11T05:59:46;-3.00;99.90
21487;DHT22;10905;50.822;4.336;2024-01-11T06:02:12;-2.90;99.90
21487;DHT22;10905;50.822;4.336;2024-01-11T06:04:39;-2.90;99.90
21487;DHT22;10905;50.822;4.336;2024-01-11T06:07:05;-2.90;99.90
21487;DHT22;10905;50.822;4.336;2024-01-11T06:09:30;-3.00;99.90
21487;DHT22;10905;50.822;4.336;2024-01-11T06:11:56;-3.00;99.90
21487;DHT22;10905;50.822;4.336;2024-01-11T06:14:21;-2.90;99.90
21487;DHT22;10905;50.822;4.336;2024-01-11T06:16:47;-2.80;99.90
21487;DHT22;10905;50.822;4.336;2024-01-11T06:19:13;-2.90;99.90
21487;DHT22;10905;50.822;4.336;2024-01-11T06:21:38;-2.90;99.90
21487;DHT22;10905;50.822;4.336;2024-01-11T06:24:04;-3.00;99.90
21487;DHT22;10905;50.822;4.336;2024-01-11T06:26:30;-2.90;99.90
21487;DHT22;10905;50.822;4.336;2024-01-11T06:28:56;-2.90;99.90
21487;DHT22;10905;50.822;4.336;2024-01-11T06:31:21;-3.10;99.90
21487;DHT22;10905;50.822;4.336;2024-01-11T06:33:47;-3.10;99.90
21487;DHT22;10905;50.822;4.336;2024-01-11T06:36:13;-3.10;99.90
21487;DHT22;10905;50.822;4.336;2024-01-11T06:38:39;-3.10;99.90
21487;DHT22;10905;50.822;4.336;2024-01-11T06:41:04;-3.20;99.90
21487;DHT22;10905;50.822;4.336;2024-01-11T06:43:30;-3.10;99.90
21487;DHT22;10905;50.822;4.336;2024-01-11T06:45:55;-3.00;99.90
21487;DHT22;10905;50.822;4.336;2024-01-11T06:48:21;-3.00;99.90
21487;DHT22;10905;50.822;4.336;2024-01-11T06:50:47;-3.00;99.90
21487;DHT22;10905;50.822;4.336;2024-01-11T06:53:13;-3.00;99.90
21487;DHT22;10905;50.822;4.336;2024-01-11T06:55:38;-2.90;99.90
21487;DHT22;10905;50.822;4.336;2024-01-11T06:58:06;-3.00;99.90
21487;DHT22;10905;50.822;4.336;2024-01-11T07:00:32;-3.00;99.90
21487;DHT22;10905;50.822;4.336;2024-01-11T07:02:57;-3.00;99.90
21487;DHT22;10905;50.822;4.336;2024-01-11T07:05:23;-3.00;99.90
21487;DHT22;10905;50.822;4.336;2024-01-11T07:07:49;-3.00;99.90
21487;DHT22;10905;50.822;4.336;2024-01-11T07:10:14;-3.10;99.90
21487;DHT22;10905;50.822;4.336;2024-01-11T07:12:40;-3.00;99.90
21487;DHT22;10905;50.822;4.336;2024-01-11T07:15:08;-3.20;99.90
21487;DHT22;10905;50.822;4.336;2024-01-11T07:17:34;-3.10;99.90
21487;DHT22;10905;50.822;4.336;2024-01-11T07:20:01;-3.00;99.90
21487;DHT22;10905;50.822;4.336;2024-01-11T07:22:29;-3.10;99.90
21487;DHT22;10905;50.822;4.336;2024-01-11T07:24:55;-3.00;99.90
21487;DHT22;10905;50.822;4.336;2024-01-11T07:27:20;-3.00;99.90
21487;DHT22;10905;50.822;4.336;2024-01-11T07:29:46;-3.00;99.90
21487;DHT22;10905;50.822;4.336;2024-01-11T07:32:12;-3.00;99.90
21487;DHT22;10905;50.822;4.336;2024-01-11T07:34:37;-3.00;99.90
21487;DHT22;10905;50.822;4.336;2024-01-11T07:37:03;-2.90;99.90
21487;DHT22;10905;50.822;4.336;2024-01-11T07:39:29;-2.90;99.90
21487;DHT22;10905;50.822;4.336;2024-01-11T07:41:56;-2.80;99.90
21487;DHT22;10905;50.822;4.336;2024-01-11T07:44:22;-2.70;99.90
21487;DHT22;10905;50.822;4.336;2024-01-11T07:46:47;-2.70;99.90
21487;DHT22;10905;50.822;4.336;2024-01-11T07:49:13;-2.80;99.90
21487;DHT22;10905;50.822;4.336;2024-01-11T07:51:39;-2.70;99.90
21487;DHT22;10905;50.822;4.336;2024-01-11T07:54:04;-2.80;99.90
21487;DHT22;10905;50.822;4.336;2024-01-11T07:56:30;-2.90;99.90
21487;DHT22;10905;50.822;4.336;2024-01-11T07:58:56;-2.90;99.90
21487;DHT22;10905;50.822;4.336;2024-01-11T08:01:22;-2.90;99.90
21487;DHT22;10905;50.822;4.336;2024-01-11T08:03:47;-2.90;99.90
21487;DHT22;10905;50.822;4.336;2024-01-11T08:06:13;-2.70;99.90
21487;DHT22;10905;50.822;4.336;2024-01-11T08:08:39;-2.70;99.90
21487;DHT22;10905;50.822;4.336;2024-01-11T08:11:08;-2.70;99.90
21487;DHT22;10905;50.822;4.336;2024-01-11T08:13:34;-2.60;99.90
21487;DHT22;10905;50.822;4.336;2024-01-11T08:16:03;-2.50;99.90
21487;DHT22;10905;50.822;4.336;2024-01-11T08:18:30;-2.50;99.90
21487;DHT22;10905;50.822;4.336;2024-01-11T08:20:56;-2.50;99.90
21487;DHT22;10905;50.822;4.336;2024-01-11T08:23:22;-2.50;99.90
21487;DHT22;10905;50.822;4.336;2024-01-11T08:25:47;-2.40;99.90
21487;DHT22;10905;50.822;4.336;2024-01-11T08:28:13;-2.40;99.90
21487;DHT22;10905;50.822;4.336;2024-01-11T08:30:39;-2.50;99.90
21487;DHT22;10905;50.822;4.336;2024-01-11T08:33:04;-2.50;99.90
21487;DHT22;10905;50.822;4.336;2024-01-11T08:35:30;-2.50;99.90
21487;DHT22;10905;50.822;4.336;2024-01-11T08:37:57;-2.50;99.90
21487;DHT22;10905;50.822;4.336;2024-01-11T08:40:23;-2.40;99.90
21487;DHT22;10905;50.822;4.336;2024-01-11T08:42:49;-2.40;99.90
21487;DHT22;10905;50.822;4.336;2024-01-11T08:45:15;-2.70;99.90
21487;DHT22;10905;50.822;4.336;2024-01-11T08:47:46;-2.80;99.90
21487;DHT22;10905;50.822;4.336;2024-01-11T08:50:15;-2.80;99.90
21487;DHT22;10905;50.822;4.336;2024-01-11T08:52:42;-2.80;99.90
21487;DHT22;10905;50.822;4.336;2024-01-11T08:55:08;-2.80;99.90
21487;DHT22;10905;50.822;4.336;2024-01-11T08:57:34;-2.80;99.90
21487;DHT22;10905;50.822;4.336;2024-01-11T09:00:03;-2.80;99.90
21487;DHT22;10905;50.822;4.336;2024-01-11T09:02:31;-2.80;99.90
21487;DHT22;10905;50.822;4.336;2024-01-11T09:04:57;-2.80;99.90
21487;DHT22;10905;50.822;4.336;2024-01-11T09:07:23;-2.90;99.90
21487;DHT22;10905;50.822;4.336;2024-01-11T09:09:48;-2.90;99.90
21487;DHT22;10905;50.822;4.336;2024-01-11T09:12:14;-2.90;99.90
21487;DHT22;10905;50.822;4.336;2024-01-11T09:14:39;-3.00;99.90
21487;DHT22;10905;50.822;4.336;2024-01-11T09:17:05;-3.00;99.90
21487;DHT22;10905;50.822;4.336;2024-01-11T09:19:32;-2.90;99.90
21487;DHT22;10905;50.822;4.336;2024-01-11T09:22:00;-2.80;99.90
21487;DHT22;10905;50.822;4.336;2024-01-11T09:24:25;-2.70;99.90
21487;DHT22;10905;50.822;4.336;2024-01-11T09:26:51;-2.60;99.90
21487;DHT22;10905;50.822;4.336;2024-01-11T09:29:17;-2.50;99.90
21487;DHT22;10905;50.822;4.336;2024-01-11T09:31:42;-2.40;99.90
21487;DHT22;10905;50.822;4.336;2024-01-11T09:34:08;-2.40;99.90
21487;DHT22;10905;50.822;4.336;2024-01-11T09:36:34;-2.40;99.90
21487;DHT22;10905;50.822;4.336;2024-01-11T09:38:59;-2.40;99.90
21487;DHT22;10905;50.822;4.336;2024-01-11T09:41:25;-2.30;99.90
21487;DHT22;10905;50.822;4.336;2024-01-11T09:43:54;-2.30;99.90
21487;DHT22;10905;50.822;4.336;2024-01-11T09:46:23;-2.20;99.90
21487;DHT22;10905;50.822;4.336;2024-01-11T09:48:50;-2.10;99.90
21487;DHT22;10905;50.822;4.336;2024-01-11T09:51:17;-2.10;99.90
21487;DHT22;10905;50.822;4.336;2024-01-11T09:53:43;-2.00;99.90
21487;DHT22;10905;50.822;4.336;2024-01-11T09:56:10;-2.00;99.90
21487;DHT22;10905;50.822;4.336;2024-01-11T09:58:36;-2.10;99.90
21487;DHT22;10905;50.822;4.336;2024-01-11T10:01:02;-2.00;99.90
21487;DHT22;10905;50.822;4.336;2024-01-11T10:03:30;-2.00;99.90
21487;DHT22;10905;50.822;4.336;2024-01-11T10:05:58;-1.90;99.90
21487;DHT22;10905;50.822;4.336;2024-01-11T10:08:24;-1.80;99.90
21487;DHT22;10905;50.822;4.336;2024-01-11T10:10:50;-1.70;99.90
21487;DHT22;10905;50.822;4.336;2024-01-11T10:13:16;-1.60;99.90
21487;DHT22;10905;50.822;4.336;2024-01-11T10:15:46;-1.70;99.90
21487;DHT22;10905;50.822;4.336;2024-01-11T10:18:11;-1.70;99.90
21487;DHT22;10905;50.822;4.336;2024-01-11T10:20:37;-1.70;99.90
21487;DHT22;10905;50.822;4.336;2024-01-11T10:23:04;-1.60;99.90
21487;DHT22;10905;50.822;4.336;2024-01-11T10:25:29;-1.50;99.90
21487;DHT22;10905;50.822;4.336;2024-01-11T10:27:55;-1.50;99.90
21487;DHT22;10905;50.822;4.336;2024-01-11T10:30:21;-1.50;99.90
21487;DHT22;10905;50.822;4.336;2024-01-11T10:32:49;-1.50;99.90
21487;DHT22;10905;50.822;4.336;2024-01-11T10:35:15;-1.60;99.90
21487;DHT22;10905;50.822;4.336;2024-01-11T10:37:44;-1.50;99.90
21487;DHT22;10905;50.822;4.336;2024-01-11T10:40:10;-1.50;99.90
21487;DHT22;10905;50.822;4.336;2024-01-11T10:42:43;-1.50;99.90
21487;DHT22;10905;50.822;4.336;2024-01-11T10:45:16;-1.40;99.90
21487;DHT22;10905;50.822;4.336;2024-01-11T10:47:55;-1.30;99.90
21487;DHT22;10905;50.822;4.336;2024-01-11T10:50:25;-1.10;99.90
21487;DHT22;10905;50.822;4.336;2024-01-11T10:53:11;-1.10;99.90
21487;DHT22;10905;50.822;4.336;2024-01-11T10:55:38;-1.20;99.90
21487;DHT22;10905;50.822;4.336;2024-01-11T10:58:06;-1.20;99.90
21487;DHT22;10905;50.822;4.336;2024-01-11T11:00:34;-1.10;99.90
21487;DHT22;10905;50.822;4.336;2024-01-11T11:03:00;-1.10;99.90
21487;DHT22;10905;50.822;4.336;2024-01-11T11:05:28;-1.30;99.90
21487;DHT22;10905;50.822;4.336;2024-01-11T11:07:58;-1.20;99.90
21487;DHT22;10905;50.822;4.336;2024-01-11T11:10:28;-1.20;99.90
21487;DHT22;10905;50.822;4.336;2024-01-11T11:12:54;-1.20;99.90
21487;DHT22;10905;50.822;4.336;2024-01-11T11:15:23;-1.10;99.90
21487;DHT22;10905;50.822;4.336;2024-01-11T11:17:49;-0.90;99.90
21487;DHT22;10905;50.822;4.336;2024-01-11T11:20:15;-0.90;99.90
21487;DHT22;10905;50.822;4.336;2024-01-11T11:22:42;-0.80;99.90
21487;DHT22;10905;50.822;4.336;2024-01-11T11:25:10;-0.80;99.90
21487;DHT22;10905;50.822;4.336;2024-01-11T11:27:37;-0.80;99.90
21487;DHT22;10905;50.822;4.336;2024-01-11T11:30:04;-0.90;99.90
21487;DHT22;10905;50.822;4.336;2024-01-11T11:32:37;-0.70;99.90
21487;DHT22;10905;50.822;4.336;2024-01-11T11:35:05;-0.50;99.90
21487;DHT22;10905;50.822;4.336;2024-01-11T11:37:31;-0.50;99.90
21487;DHT22;10905;50.822;4.336;2024-01-11T11:39:59;-0.40;99.90
21487;DHT22;10905;50.822;4.336;2024-01-11T11:42:25;-0.40;99.90
21487;DHT22;10905;50.822;4.336;2024-01-11T11:44:51;-0.30;99.90
21487;DHT22;10905;50.822;4.336;2024-01-11T11:47:21;-0.30;99.90
21487;DHT22;10905;50.822;4.336;2024-01-11T11:50:10;-0.20;99.90
21487;DHT22;10905;50.822;4.336;2024-01-11T11:52:38;-0.10;99.90
21487;DHT22;10905;50.822;4.336;2024-01-11T11:55:06;-0.10;99.90
21487;DHT22;10905;50.822;4.336;2024-01-11T11:57:33;-0.10;99.90
21487;DHT22;10905;50.822;4.336;2024-01-11T11:59:59;0.00;99.90
21487;DHT22;10905;50.822;4.336;2024-01-11T12:02:26;0.00;99.90
21487;DHT22;10905;50.822;4.336;2024-01-11T12:04:52;0.00;99.90
21487;DHT22;10905;50.822;4.336;2024-01-11T12:07:22;0.00;99.90
21487;DHT22;10905;50.822;4.336;2024-01-11T12:09:49;0.00;99.90
21487;DHT22;10905;50.822;4.336;2024-01-11T12:12:16;0.00;99.90
21487;DHT22;10905;50.822;4.336;2024-01-11T12:14:43;0.10;99.90
21487;DHT22;10905;50.822;4.336;2024-01-11T12:17:09;0.10;99.90
21487;DHT22;10905;50.822;4.336;2024-01-11T12:19:34;0.20;99.90
21487;DHT22;10905;50.822;4.336;2024-01-11T12:22:00;0.30;99.90
21487;DHT22;10905;50.822;4.336;2024-01-11T12:24:26;0.50;99.90
21487;DHT22;10905;50.822;4.336;2024-01-11T12:26:52;0.60;99.90
21487;DHT22;10905;50.822;4.336;2024-01-11T12:29:19;0.60;99.90
21487;DHT22;10905;50.822;4.336;2024-01-11T12:31:45;0.60;99.90
21487;DHT22;10905;50.822;4.336;2024-01-11T12:34:14;0.70;99.90
21487;DHT22;10905;50.822;4.336;2024-01-11T12:36:40;0.80;99.90
21487;DHT22;10905;50.822;4.336;2024-01-11T12:39:06;0.70;99.90
21487;DHT22;10905;50.822;4.336;2024-01-11T12:41:34;0.50;99.90
21487;DHT22;10905;50.822;4.336;2024-01-11T12:44:01;0.50;99.90
21487;DHT22;10905;50.822;4.336;2024-01-11T12:46:26;0.50;99.90
21487;DHT22;10905;50.822;4.336;2024-01-11T12:48:52;0.50;99.90
21487;DHT22;10905;50.822;4.336;2024-01-11T12:51:18;0.50;99.90
21487;DHT22;10905;50.822;4.336;2024-01-11T12:53:48;0.60;99.90
21487;DHT22;10905;50.822;4.336;2024-01-11T12:56:15;0.60;99.90
21487;DHT22;10905;50.822;4.336;2024-01-11T12:58:41;0.60;99.90
21487;DHT22;10905;50.822;4.336;2024-01-11T13:01:07;0.60;99.90
21487;DHT22;10905;50.822;4.336;2024-01-11T13:03:38;0.60;99.90
21487;DHT22;10905;50.822;4.336;2024-01-11T13:06:04;0.60;99.90
21487;DHT22;10905;50.822;4.336;2024-01-11T13:08:34;0.50;99.90
21487;DHT22;10905;50.822;4.336;2024-01-11T13:11:05;0.70;99.90
21487;DHT22;10905;50.822;4.336;2024-01-11T13:13:35;0.80;99.90
21487;DHT22;10905;50.822;4.336;2024-01-11T13:16:04;0.90;99.90
21487;DHT22;10905;50.822;4.336;2024-01-11T13:18:36;0.90;99.90
21487;DHT22;10905;50.822;4.336;2024-01-11T13:21:02;1.00;99.90
21487;DHT22;10905;50.822;4.336;2024-01-11T13:23:28;1.00;99.90
21487;DHT22;10905;50.822;4.336;2024-01-11T13:25:54;1.00;99.90
21487;DHT22;10905;50.822;4.336;2024-01-11T13:28:19;1.10;99.90
21487;DHT22;10905;50.822;4.336;2024-01-11T13:30:45;1.10;99.90
21487;DHT22;10905;50.822;4.336;2024-01-11T13:33:12;1.10;99.90
21487;DHT22;10905;50.822;4.336;2024-01-11T13:35:39;1.10;99.90
21487;DHT22;10905;50.822;4.336;2024-01-11T13:38:05;1.10;99.90
21487;DHT22;10905;50.822;4.336;2024-01-11T13:40:31;1.20;99.90
21487;DHT22;10905;50.822;4.336;2024-01-11T13:42:58;1.10;99.90
21487;DHT22;10905;50.822;4.336;2024-01-11T13:45:25;1.20;99.90
21487;DHT22;10905;50.822;4.336;2024-01-11T13:47:52;1.40;99.90
21487;DHT22;10905;50.822;4.336;2024-01-11T13:50:22;1.40;99.90
21487;DHT22;10905;50.822;4.336;2024-01-11T13:52:49;1.30;99.90
21487;DHT22;10905;50.822;4.336;2024-01-11T13:55:16;1.20;99.90
21487;DHT22;10905;50.822;4.336;2024-01-11T13:57:43;1.20;99.90
21487;DHT22;10905;50.822;4.336;2024-01-11T14:00:10;1.20;99.90
21487;DHT22;10905;50.822;4.336;2024-01-11T14:02:37;1.30;99.90
21487;DHT22;10905;50.822;4.336;2024-01-11T14:05:03;1.30;99.90
21487;DHT22;10905;50.822;4.336;2024-01-11T14:07:30;1.30;99.90
21487;DHT22;10905;50.822;4.336;2024-01-11T14:09:56;1.30;99.90
21487;DHT22;10905;50.822;4.336;2024-01-11T14:12:21;1.40;99.90
21487;DHT22;10905;50.822;4.336;2024-01-11T14:14:47;1.40;99.90
21487;DHT22;10905;50.822;4.336;2024-01-11T14:17:13;1.40;99.90
21487;DHT22;10905;50.822;4.336;2024-01-11T14:19:38;1.40;99.90
21487;DHT22;10905;50.822;4.336;2024-01-11T14:22:04;1.60;99.90
21487;DHT22;10905;50.822;4.336;2024-01-11T14:24:33;1.60;99.90
21487;DHT22;10905;50.822;4.336;2024-01-11T14:27:00;1.50;99.90
21487;DHT22;10905;50.822;4.336;2024-01-11T14:29:27;1.60;99.90
21487;DHT22;10905;50.822;4.336;2024-01-11T14:31:52;1.60;99.90
21487;DHT22;10905;50.822;4.336;2024-01-11T14:34:18;1.50;99.90
21487;DHT22;10905;50.822;4.336;2024-01-11T14:36:44;1.50;99.90
21487;DHT22;10905;50.822;4.336;2024-01-11T14:39:09;1.50;99.90
21487;DHT22;10905;50.822;4.336;2024-01-11T14:41:35;1.60;99.90
21487;DHT22;10905;50.822;4.336;2024-01-11T14:44:02;1.60;99.90
21487;DHT22;10905;50.822;4.336;2024-01-11T14:46:29;1.60;99.90
21487;DHT22;10905;50.822;4.336;2024-01-11T14:48:55;1.50;99.90
21487;DHT22;10905;50.822;4.336;2024-01-11T14:51:20;1.60;99.90
21487;DHT22;10905;50.822;4.336;2024-01-11T14:53:46;1.60;99.90
21487;DHT22;10905;50.822;4.336;2024-01-11T14:56:12;1.50;99.90
21487;DHT22;10905;50.822;4.336;2024-01-11T14:58:38;1.50;99.90
21487;DHT22;10905;50.822;4.336;2024-01-11T15:01:03;1.60;99.90
21487;DHT22;10905;50.822;4.336;2024-01-11T15:03:29;1.50;99.90
21487;DHT22;10905;50.822;4.336;2024-01-11T15:05:55;1.50;99.90
21487;DHT22;10905;50.822;4.336;2024-01-11T15:08:21;1.40;99.90
21487;DHT22;10905;50.822;4.336;2024-01-11T15:10:47;1.50;99.90
21487;DHT22;10905;50.822;4.336;2024-01-11T15:13:13;1.50;99.90
21487;DHT22;10905;50.822;4.336;2024-01-11T15:15:39;1.40;99.90
21487;DHT22;10905;50.822;4.336;2024-01-11T15:18:05;1.30;99.90
21487;DHT22;10905;50.822;4.336;2024-01-11T15:20:30;1.30;99.90
21487;DHT22;10905;50.822;4.336;2024-01-11T15:22:56;1.30;99.90
21487;DHT22;10905;50.822;4.336;2024-01-11T15:25:22;1.30;99.90
21487;DHT22;10905;50.822;4.336;2024-01-11T15:27:49;1.30;99.90
21487;DHT22;10905;50.822;4.336;2024-01-11T15:30:15;1.30;99.90